createdAt,value
2023-01-26T02:55:49.118Z,101361.84
2023-01-26T02:58:18.029Z,101361.60
2023-01-26T03:00:44.993Z,101361.02
2023-01-26T03:03:16.120Z,101358.38
2023-01-26T03:05:44.245Z,101357.45
2023-01-26T03:08:11.885Z,101355.30
2023-01-26T03:10:39.736Z,101356.94
2023-01-26T03:13:07.019Z,101357.67
2023-01-26T03:16:08.444Z,101361.89
2023-01-26T03:18:55.040Z,101359.88
2023-01-26T03:21:42.085Z,101356.13
2023-01-26T03:24:30.449Z,101350.97
2023-01-26T03:27:17.382Z,101351.86
2023-01-26T03:29:45.214Z,101352.91
2023-01-26T03:32:14.946Z,101353.44
2023-01-26T03:34:42.658Z,101359.14
2023-01-26T03:37:09.667Z,101359.42
2023-01-26T03:40:03.176Z,101357.83
2023-01-26T03:42:48.819Z,101359.48
2023-01-26T03:45:34.663Z,101361.52
2023-01-26T03:48:29.979Z,101362.02
2023-01-26T03:51:15.866Z,101363.94
2023-01-26T04:03:16.257Z,101363.05
2023-01-26T04:06:16.352Z,101364.08
2023-01-26T04:08:47.642Z,101361.93
2023-01-26T04:11:15.529Z,101366.63
2023-01-26T04:14:02.225Z,101369.58
2023-01-26T04:16:50.787Z,101370.61
2023-01-26T04:19:36.683Z,101376.70
2023-01-26T04:22:04.058Z,101382.79
2023-01-26T04:24:35.147Z,101385.92
2023-01-26T04:27:02.216Z,101386.27
2023-01-26T04:29:36.298Z,101389.43
2023-01-26T04:32:03.693Z,101392.42
2023-01-26T04:34:33.155Z,101392.45
2023-01-26T04:37:01.211Z,101393.70
2023-01-26T04:39:38.477Z,101391.95
2023-01-26T04:42:06.199Z,101398.30
2023-01-26T04:44:33.265Z,101396.64
2023-01-26T04:47:00.831Z,101403.00
2023-01-26T04:49:28.158Z,101399.81
2023-01-26T04:51:55.640Z,101401.48
2023-01-26T05:26:39.746Z,101407.56
2023-01-26T05:29:12.917Z,101411.34
2023-01-26T05:31:40.659Z,101411.80
2023-01-26T05:34:07.589Z,101407.39
2023-01-26T05:36:36.299Z,101404.05
2023-01-26T05:39:03.326Z,101404.06
2023-01-26T05:41:34.605Z,101402.45
2023-01-26T05:44:19.401Z,101402.02
2023-01-26T05:46:53.319Z,101403.11
2023-01-26T05:49:20.442Z,101401.43
2023-01-26T05:51:47.620Z,101400.60
2023-01-26T05:54:15.211Z,101401.14
2023-01-26T05:56:45.014Z,101401.76
2023-01-26T05:59:12.870Z,101402.20
2023-01-26T06:01:39.958Z,101400.70
2023-01-26T06:04:07.464Z,101401.81
2023-01-26T06:06:52.620Z,101400.08
2023-01-26T06:09:27.305Z,101398.66
2023-01-26T06:12:03.933Z,101399.16
2023-01-26T06:14:54.979Z,101398.43
2023-01-26T06:17:23.013Z,101399.14
2023-01-26T06:20:00.411Z,101398.06
2023-01-26T06:22:27.792Z,101400.33
2023-01-26T06:24:54.680Z,101399.28
2023-01-26T06:27:23.338Z,101397.69
2023-01-26T06:29:51.707Z,101397.79
2023-01-26T06:32:18.835Z,101395.45
2023-01-26T06:34:48.772Z,101393.73
2023-01-26T06:37:16.010Z,101394.96
2023-01-26T06:39:45.192Z,101398.06
2023-01-26T06:42:12.664Z,101403.48
2023-01-26T06:44:40.536Z,101400.69
2023-01-26T06:47:08.224Z,101401.29
2023-01-26T06:49:41.833Z,101399.46
2023-01-26T06:52:35.433Z,101397.76
2023-01-26T06:55:36.198Z,101392.08
2023-01-26T06:58:33.345Z,101390.45
2023-01-26T07:01:06.567Z,101387.17
2023-01-26T07:03:34.482Z,101385.61
2023-01-26T07:06:01.690Z,101384.25
2023-01-26T07:08:28.939Z,101380.92
2023-01-26T07:10:55.753Z,101383.82
2023-01-26T07:13:22.645Z,101384.17
2023-01-26T07:15:49.942Z,101376.98
2023-01-26T07:18:16.872Z,101378.58
2023-01-26T07:20:43.722Z,101379.67
2023-01-26T07:23:10.771Z,101386.85
2023-01-26T07:25:38.772Z,101379.98
2023-01-26T07:28:09.452Z,101379.27
2023-01-26T07:30:36.597Z,101377.47
2023-01-26T07:33:03.706Z,101379.98
2023-01-26T07:35:31.160Z,101372.67
2023-01-26T07:37:58.598Z,101373.17
2023-01-26T07:40:25.990Z,101371.72
2023-01-26T07:42:55.506Z,101366.33
2023-01-26T07:45:51.221Z,101362.48
2023-01-26T07:48:20.658Z,101360.36
2023-01-26T07:50:48.033Z,101361.90
2023-01-26T07:53:18.780Z,101361.44
2023-01-26T07:55:47.201Z,101360.12
2023-01-26T07:58:15.036Z,101361.08
2023-01-26T08:00:41.912Z,101363.80
2023-01-26T08:03:08.911Z,101364.02
2023-01-26T08:05:38.089Z,101364.42
2023-01-26T08:08:05.439Z,101357.54
2023-01-26T08:10:32.580Z,101357.80
2023-01-26T08:13:00.239Z,101354.13
2023-01-26T08:15:28.315Z,101350.24
2023-01-26T08:17:55.521Z,101348.17
2023-01-26T08:20:22.486Z,101342.02
2023-01-26T08:24:25.785Z,101338.21
2023-01-26T08:26:52.849Z,101331.24
2023-01-26T08:29:20.370Z,101329.92
2023-01-26T08:31:47.483Z,101329.83
2023-01-26T08:34:14.638Z,101326.60
2023-01-26T08:36:41.853Z,101324.25
2023-01-26T19:40:34.715Z,101092.60
2023-01-26T19:43:02.046Z,101096.09
2023-01-26T19:45:31.313Z,101095.31
2023-01-26T19:47:58.724Z,101095.76
2023-01-26T19:50:26.386Z,101095.16
2023-01-26T19:52:53.487Z,101098.04
2023-01-26T19:55:21.879Z,101098.13
2023-01-26T19:57:49.510Z,101100.99
2023-01-26T20:00:17.717Z,101104.41
2023-01-26T20:02:47.087Z,101103.82
2023-01-26T20:05:14.981Z,101100.27
2023-01-26T20:07:43.011Z,101100.58
2023-01-26T20:10:11.262Z,101100.52
2023-01-26T20:12:39.190Z,101094.69
2023-01-26T20:15:08.197Z,101093.70
2023-01-26T20:17:35.807Z,101092.02
2023-01-26T20:20:03.660Z,101089.29
2023-01-26T20:22:33.278Z,101091.25
2023-01-26T20:25:01.198Z,101094.61
2023-01-26T20:27:29.778Z,101092.58
2023-01-26T20:29:56.681Z,101090.21
2023-01-26T20:32:25.058Z,101089.56
2023-01-26T20:34:52.430Z,101089.97
2023-01-26T20:37:20.908Z,101090.23
2023-01-26T20:39:49.919Z,101086.42
2023-01-26T20:42:18.446Z,101089.02
2023-01-26T20:44:46.006Z,101089.75
2023-01-26T20:47:13.414Z,101084.02
2023-01-26T20:49:42.712Z,101086.84
2023-01-26T20:52:09.755Z,101085.64
2023-01-26T20:54:36.810Z,101079.09
2023-01-26T20:57:04.359Z,101074.23
2023-01-26T20:59:32.007Z,101071.36
2023-01-26T21:01:59.151Z,101066.23
2023-01-26T21:04:26.486Z,101067.16
2023-01-26T21:06:54.793Z,101064.45
2023-01-26T21:09:21.980Z,101060.92
2023-01-26T21:11:49.301Z,101060.14
2023-01-26T21:14:16.259Z,101053.27
2023-01-26T21:16:44.042Z,101048.13
2023-01-26T21:19:11.496Z,101042.77
2023-01-26T21:21:38.379Z,101039.95
2023-01-26T21:24:05.879Z,101032.84
2023-01-26T21:26:32.929Z,101032.70
2023-01-26T21:29:00.328Z,101030.81
2023-01-26T21:31:30.197Z,101028.69
2023-01-26T21:33:58.472Z,101023.97
2023-01-26T21:36:28.578Z,101024.14
2023-01-26T21:38:57.325Z,101026.94
2023-01-26T21:41:52.400Z,101024.63
2023-01-26T21:44:22.697Z,101022.29
2023-01-26T21:46:52.757Z,101022.07
2023-01-26T21:49:20.640Z,101023.95
2023-01-26T21:52:06.341Z,101025.16
2023-01-26T21:54:35.257Z,101024.27
2023-01-26T21:57:03.996Z,101027.52
2023-01-26T21:59:31.510Z,101018.94
2023-01-26T22:01:58.419Z,101021.35
2023-01-26T22:04:30.361Z,101021.15
2023-01-26T22:06:57.503Z,101024.08
2023-01-26T22:09:25.012Z,101029.23
2023-01-26T22:11:52.119Z,101027.13
2023-01-26T22:14:22.283Z,101027.39
2023-01-26T22:16:51.691Z,101024.66
2023-01-26T22:19:19.811Z,101025.52
2023-01-26T22:21:47.322Z,101032.77
2023-01-26T22:24:14.850Z,101032.08
2023-01-26T22:26:41.892Z,101031.39
2023-01-26T22:29:10.823Z,101029.64
2023-01-26T22:31:38.207Z,101027.73
2023-01-26T22:34:05.304Z,101018.49
2023-01-26T22:36:33.216Z,101011.73
2023-01-26T22:39:00.632Z,101007.41
2023-01-26T22:41:29.515Z,101002.32
2023-01-26T22:43:58.830Z,101003.63
2023-01-26T22:46:27.363Z,101000.61
2023-01-26T22:48:56.627Z,100995.86
2023-01-26T22:51:27.154Z,100998.91
2023-01-26T22:53:55.364Z,101001.08
2023-01-26T22:56:22.933Z,101000.15
2023-01-26T22:58:58.012Z,100995.13
2023-01-26T23:01:28.990Z,100991.78
2023-01-26T23:03:57.627Z,100989.45
2023-01-26T23:06:25.394Z,100988.57
2023-01-26T23:08:54.299Z,100986.27
2023-01-26T23:11:24.025Z,100986.38
2023-01-26T23:13:52.848Z,100986.38
2023-01-26T23:16:22.359Z,100982.56
2023-01-26T23:18:50.320Z,100981.34
2023-01-26T23:21:17.633Z,100980.81
2023-01-26T23:23:44.579Z,100981.31
2023-01-26T23:26:12.649Z,100974.11
2023-01-26T23:28:41.808Z,100971.55
2023-01-26T23:31:10.548Z,100975.33
2023-01-26T23:33:38.356Z,100970.69
2023-01-26T23:36:07.495Z,100970.54
2023-01-26T23:38:35.296Z,100976.11
2023-01-26T23:41:04.769Z,100977.52
2023-01-26T23:43:32.055Z,100976.07
2023-01-26T23:45:59.114Z,100976.94
2023-01-26T23:48:26.228Z,100979.98
2023-01-26T23:51:01.613Z,100977.73
2023-01-26T23:53:30.229Z,100977.77
2023-01-26T23:56:00.103Z,100979.64
2023-01-26T23:58:27.579Z,100983.30
